Terminal Aerodrome Forecast
Issued by NWS Albuquerque, NM

Home | Current Version | Previous Version | Text Only | Print | Product List | Glossary On
Versions: 1 2 3 4 5 6 7 8 9 10 11 12 13 14 15
730
FTUS45 KABQ 211740
TAFABQ
TAF
KABQ 211740Z 2118/2218 31017G27KT P6SM FEW090
     FM220000 34015G25KT P6SM SKC
     FM220300 35011KT P6SM SKC
     FM220700 36006KT P6SM SKC=

USA.gov is the U.S. government's official web portal to all federal, state and local government web resources and services.